Time;durP1;ratioP1;P1;durP2;ratioP2;P2;SDS_P1;SDS_P2;PMS_P1;PMS_P2;Temp;Humidity;BMP_temperature;BMP_pressure;BME280_temperature;BME280_humidity;BME280_pressure;Samples;Min_cycle;Max_cycle;Signal;HPM_P1;HPM_P2
2022/08/29 00:00:48;;;;;;;;;;;;;;;;;;;;;
2022/08/29 00:03:14;;;;;;;5.90;5.30;;;21.80;68.60;;;;;;5039091;28;20283;-85
2022/08/29 00:05:43;;;;;;;5.53;5.13;;;21.60;67.40;;;;;;5021578;28;20196;-85
2022/08/29 00:08:09;;;;;;;7.20;5.32;;;21.40;68.40;;;;;;5024679;28;20718;-85
2022/08/29 00:10:37;;;;;;;6.97;5.15;;;21.30;68.40;;;;;;5048448;28;20181;-85
2022/08/29 00:13:05;;;;;;;8.15;5.28;;;21.40;68.40;;;;;;5046566;28;20570;-85
2022/08/29 00:15:31;;;;;;;7.82;5.35;;;21.30;67.20;;;;;;5049348;28;20185;-85
2022/08/29 00:17:56;;;;;;;6.18;5.50;;;21.30;68.90;;;;;;5054899;28;20284;-85
2022/08/29 00:20:25;;;;;;;5.70;5.00;;;21.30;66.80;;;;;;5033201;28;20200;-86
2022/08/29 00:22:51;;;;;;;6.13;5.07;;;21.20;66.90;;;;;;5049023;28;20188;-85
2022/08/29 00:25:17;;;;;;;5.72;5.18;;;21.30;67.70;;;;;;5031004;28;20652;-85
2022/08/29 00:27:43;;;;;;;6.20;5.60;;;21.40;67.30;;;;;;5047261;28;20218;-85
2022/08/29 00:30:10;;;;;;;7.47;5.25;;;21.50;66.10;;;;;;5043372;28;20223;-85
2022/08/29 00:32:36;;;;;;;6.32;5.72;;;21.50;67.60;;;;;;5048297;28;20728;-85
2022/08/29 00:35:13;;;;;;;5.93;5.47;;;21.60;64.60;;;;;;5026670;28;20212;-85
2022/08/29 00:37:40;;;;;;;6.45;5.60;;;21.70;64.30;;;;;;5048078;28;20838;-86
2022/08/29 00:40:09;;;;;;;6.95;5.90;;;21.80;63.90;;;;;;5049934;28;20533;-86
2022/08/29 00:42:35;;;;;;;9.82;6.70;;;21.80;63.90;;;;;;5048764;28;20199;-85
2022/08/29 00:45:06;;;;;;;7.88;6.57;;;21.80;63.10;;;;;;5050275;28;20682;-86
2022/08/29 00:47:36;;;;;;;7.32;6.63;;;21.70;63.90;;;;;;5050182;28;20184;-86
2022/08/29 00:50:06;;;;;;;7.80;7.05;;;21.50;62.60;;;;;;5049105;28;20181;-86
2022/08/29 00:52:43;;;;;;;7.80;7.10;;;21.50;64.50;;;;;;5050200;28;20257;-85
2022/08/29 00:55:13;;;;;;;7.88;6.65;;;21.50;63.00;;;;;;5043544;28;20188;-85
2022/08/29 00:57:43;;;;;;;7.25;6.55;;;21.40;60.90;;;;;;5053446;28;20198;-84
2022/08/29 01:00:12;;;;;;;6.95;6.30;;;21.40;61.50;;;;;;5026419;28;20615;-85
2022/08/29 01:02:40;;;;;;;6.65;6.03;;;21.40;62.70;;;;;;5047376;28;20200;-85
2022/08/29 01:05:08;;;;;;;7.88;5.50;;;21.30;60.10;;;;;;5045650;28;20185;-85
2022/08/29 01:07:33;;;;;;;7.10;5.60;;;21.30;62.30;;;;;;5046844;28;20188;-86
2022/08/29 01:09:59;;;;;;;6.43;5.82;;;21.30;61.30;;;;;;5046857;28;20228;-86
2022/08/29 01:12:26;;;;;;;6.07;5.45;;;21.30;61.90;;;;;;5050969;28;20242;-86
2022/08/29 01:14:57;;;;;;;6.82;5.05;;;21.30;59.50;;;;;;5025246;28;20224;-86
2022/08/29 01:17:26;;;;;;;5.78;5.20;;;21.10;59.70;;;;;;5047167;28;20184;-86
2022/08/29 01:19:59;;;;;;;5.30;4.68;;;21.10;60.70;;;;;;5027099;28;20816;-86
2022/08/29 01:22:28;;;;;;;5.75;5.25;;;21.00;60.30;;;;;;5045239;28;20185;-86
2022/08/29 01:24:56;;;;;;;5.60;4.90;;;21.00;60.80;;;;;;5045670;28;20720;-86
2022/08/29 01:27:27;;;;;;;7.05;4.40;;;21.10;61.90;;;;;;5056566;28;20807;-86
2022/08/29 01:29:53;;;;;;;5.72;4.65;;;21.10;59.00;;;;;;5046633;28;20199;-86
2022/08/29 01:32:19;;;;;;;5.07;4.60;;;20.90;60.80;;;;;;5047348;28;20207;-86
2022/08/29 01:34:44;;;;;;;6.68;5.10;;;20.90;61.40;;;;;;5051899;28;20262;-86
2022/08/29 01:37:13;;;;;;;6.68;4.97;;;21.00;61.30;;;;;;5049787;28;20234;-86
2022/08/29 01:39:41;;;;;;;5.18;4.68;;;21.10;60.50;;;;;;5048015;28;20217;-86
2022/08/29 01:42:12;;;;;;;5.13;4.63;;;21.10;59.80;;;;;;5046767;28;20181;-86
2022/08/29 01:44:38;;;;;;;6.03;4.57;;;21.00;58.00;;;;;;5035889;28;20261;-86
2022/08/29 01:47:06;;;;;;;4.97;4.57;;;20.80;58.10;;;;;;5049739;28;20203;-85
2022/08/29 01:49:33;;;;;;;5.57;4.80;;;20.50;61.00;;;;;;5048892;28;20207;-85
2022/08/29 01:52:01;;;;;;;5.80;4.93;;;20.60;60.90;;;;;;5048374;28;20191;-87
2022/08/29 01:54:27;;;;;;;5.20;4.32;;;20.60;60.80;;;;;;5046207;28;20224;-86
2022/08/29 01:56:53;;;;;;;4.97;4.22;;;20.60;59.90;;;;;;5050562;28;20195;-85
2022/08/29 01:59:22;;;;;;;5.15;4.35;;;20.60;60.30;;;;;;5050794;28;20187;-85
2022/08/29 02:01:57;;;;;;;5.35;4.80;;;20.60;58.60;;;;;;5026895;28;20211;-85
2022/08/29 02:04:22;;;;;;;5.97;4.20;;;20.60;59.40;;;;;;5047642;28;20221;-86
2022/08/29 02:06:49;;;;;;;5.03;4.25;;;20.50;58.90;;;;;;5046522;28;20199;-85
2022/08/29 02:09:15;;;;;;;5.65;4.90;;;20.40;58.30;;;;;;5048693;28;20198;-85
2022/08/29 02:11:41;;;;;;;5.15;4.65;;;20.40;59.00;;;;;;5049111;28;20199;-86
2022/08/29 02:14:07;;;;;;;5.07;4.05;;;20.50;58.70;;;;;;5049644;28;20226;-86
2022/08/29 02:16:32;;;;;;;5.30;4.07;;;20.50;59.20;;;;;;5053655;28;20176;-86
2022/08/29 02:18:58;;;;;;;6.88;4.60;;;20.40;59.40;;;;;;5051063;28;20188;-86
2022/08/29 02:21:26;;;;;;;4.35;3.95;;;20.40;58.30;;;;;;5047629;28;20691;-86
2022/08/29 02:23:54;;;;;;;5.63;3.80;;;20.40;60.50;;;;;;5046220;28;20688;-86
2022/08/29 02:26:20;;;;;;;5.40;4.03;;;20.40;58.50;;;;;;5031692;28;20200;-86
2022/08/29 02:28:46;;;;;;;4.82;4.00;;;20.30;59.80;;;;;;5050812;28;20762;-86
2022/08/29 02:31:12;;;;;;;5.05;4.35;;;20.20;59.70;;;;;;5054088;28;20269;-87
2022/08/29 02:33:38;;;;;;;4.25;3.85;;;20.20;59.20;;;;;;5050691;28;20220;-86
2022/08/29 02:36:06;;;;;;;5.32;4.00;;;20.20;58.70;;;;;;5049846;28;20211;-86
2022/08/29 02:38:32;;;;;;;4.75;4.07;;;20.20;59.00;;;;;;5050179;28;20203;-85
2022/08/29 02:40:58;;;;;;;5.55;4.18;;;20.20;60.70;;;;;;5052332;28;20187;-86
2022/08/29 02:43:24;;;;;;;4.35;3.95;;;20.20;58.30;;;;;;5049091;28;20274;-86
2022/08/29 02:45:51;;;;;;;4.72;3.90;;;20.10;58.90;;;;;;5031815;28;20211;-86
2022/08/29 02:48:17;;;;;;;4.93;3.90;;;20.00;59.00;;;;;;5047089;28;20279;-86
2022/08/29 02:50:52;;;;;;;4.13;3.72;;;19.80;60.10;;;;;;5050275;28;20191;-86
2022/08/29 02:53:21;;;;;;;5.65;4.05;;;19.80;60.80;;;;;;5049348;28;20212;-86
2022/08/29 02:55:47;;;;;;;4.38;3.70;;;19.90;60.70;;;;;;5051804;28;20188;-86
2022/08/29 02:58:14;;;;;;;5.30;3.83;;;20.00;59.80;;;;;;5059002;28;20200;-86
2022/08/29 03:00:40;;;;;;;5.53;3.65;;;20.00;60.40;;;;;;5056087;28;20203;-86
2022/08/29 03:03:07;;;;;;;4.80;3.65;;;19.90;59.10;;;;;;5050718;28;20227;-85
2022/08/29 03:05:35;;;;;;;5.07;3.97;;;19.90;59.70;;;;;;5052437;28;20199;-85
2022/08/29 03:08:04;;;;;;;5.93;4.03;;;19.80;59.80;;;;;;5052455;28;20189;-84
2022/08/29 03:10:30;;;;;;;4.88;3.85;;;19.80;61.80;;;;;;5049202;28;20188;-85
2022/08/29 03:12:55;;;;;;;4.63;3.45;;;19.90;61.50;;;;;;5028380;28;20769;-85
2022/08/29 03:15:22;;;;;;;6.05;3.85;;;20.00;59.90;;;;;;5049992;28;20259;-85
2022/08/29 03:17:48;;;;;;;4.60;3.88;;;20.10;58.60;;;;;;5031588;28;20203;-85
2022/08/29 03:20:16;;;;;;;5.60;3.95;;;20.00;58.90;;;;;;5049718;28;20191;-86
2022/08/29 03:22:43;;;;;;;4.15;3.75;;;20.10;59.40;;;;;;5044177;28;20775;-86
2022/08/29 03:25:11;;;;;;;3.95;3.55;;;20.10;60.10;;;;;;5048160;28;20188;-85
2022/08/29 03:27:38;;;;;;;5.43;3.90;;;20.20;60.80;;;;;;5049703;28;20263;-86
2022/08/29 03:30:09;;;;;;;4.65;3.63;;;20.30;58.40;;;;;;5047968;28;20276;-86
2022/08/29 03:32:34;;;;;;;3.95;3.55;;;20.20;58.30;;;;;;5031302;28;20187;-86
2022/08/29 03:35:00;;;;;;;4.18;3.50;;;20.30;58.80;;;;;;5052422;28;20219;-84
2022/08/29 03:37:26;;;;;;;4.30;3.67;;;20.20;59.90;;;;;;5054991;28;20188;-85
2022/08/29 03:39:53;;;;;;;4.88;3.90;;;20.10;60.30;;;;;;5036886;28;20196;-85
2022/08/29 03:42:19;;;;;;;6.10;4.32;;;20.10;60.30;;;;;;5049428;28;20285;-85
2022/08/29 03:44:48;;;;;;;6.35;4.05;;;20.10;61.10;;;;;;5046738;28;20299;-86
2022/08/29 03:47:13;;;;;;;5.13;3.83;;;20.10;60.80;;;;;;5045183;28;20202;-86
2022/08/29 03:49:39;;;;;;;4.63;3.42;;;20.20;61.10;;;;;;5049546;28;20188;-86
2022/08/29 03:52:06;;;;;;;5.30;3.83;;;20.20;60.20;;;;;;5047169;28;20191;-86
2022/08/29 03:54:32;;;;;;;3.92;3.53;;;20.20;59.90;;;;;;5050787;28;20231;-84
2022/08/29 03:56:58;;;;;;;3.97;3.38;;;20.20;59.00;;;;;;5052198;28;20191;-85
2022/08/29 03:59:23;;;;;;;4.15;3.65;;;20.20;61.20;;;;;;5058113;28;20188;-84
2022/08/29 04:01:49;;;;;;;5.28;3.72;;;20.20;60.70;;;;;;5055422;28;20202;-86
2022/08/29 04:07:03;;;;;;;4.75;4.03;;;20.30;60.70;;;;;;5056186;28;20614;-84
2022/08/29 04:09:29;;;;;;;4.75;3.67;;;20.20;61.20;;;;;;5055208;28;20198;-84
2022/08/29 04:11:55;;;;;;;5.07;3.78;;;20.20;62.00;;;;;;5034488;28;20203;-84
2022/08/29 04:14:20;;;;;;;5.75;3.58;;;20.30;61.80;;;;;;5029904;28;20303;-86
2022/08/29 04:16:48;;;;;;;5.53;4.05;;;20.30;62.40;;;;;;5052348;28;20205;-85
2022/08/29 04:19:19;;;;;;;3.70;3.40;;;20.10;61.50;;;;;;5034769;28;20192;-84
2022/08/29 04:21:48;;;;;;;8.13;3.95;;;20.00;62.50;;;;;;5047232;28;20569;-84
2022/08/29 04:24:14;;;;;;;3.78;3.47;;;20.00;62.30;;;;;;5046828;28;20339;-86
2022/08/29 04:26:40;;;;;;;3.95;3.65;;;20.00;62.70;;;;;;5031622;28;20254;-84
2022/08/29 04:29:09;;;;;;;4.55;3.58;;;20.00;63.50;;;;;;5054229;28;20277;-85
2022/08/29 04:31:35;;;;;;;6.32;4.38;;;19.80;63.40;;;;;;5043599;28;20199;-85
2022/08/29 04:34:02;;;;;;;5.28;4.15;;;19.70;65.00;;;;;;5046097;28;20277;-85
2022/08/29 04:36:28;;;;;;;3.75;3.33;;;19.40;66.50;;;;;;5034476;28;20219;-85
2022/08/29 04:38:54;;;;;;;5.55;3.42;;;19.30;67.60;;;;;;5052169;28;20185;-85
2022/08/29 04:41:20;;;;;;;6.75;4.03;;;19.20;67.10;;;;;;5046488;28;20197;-84
2022/08/29 04:43:47;;;;;;;5.05;4.15;;;19.10;67.70;;;;;;5049945;28;20228;-84
2022/08/29 04:46:16;;;;;;;6.43;3.90;;;19.10;67.00;;;;;;5055534;28;20620;-87
2022/08/29 04:48:42;;;;;;;6.68;3.92;;;19.00;68.40;;;;;;5029423;28;20200;-87
2022/08/29 04:51:07;;;;;;;5.88;4.10;;;19.00;67.20;;;;;;5021083;28;20206;-86
2022/08/29 04:53:34;;;;;;;5.20;3.90;;;18.90;67.30;;;;;;5054524;28;20280;-84
2022/08/29 04:56:06;;;;;;;5.85;3.70;;;18.70;67.40;;;;;;5052137;28;20262;-87
2022/08/29 04:58:37;;;;;;;4.88;3.75;;;18.60;68.20;;;;;;5043205;28;20184;-86
2022/08/29 05:01:04;;;;;;;5.45;3.72;;;18.50;68.30;;;;;;5058151;28;20196;-86
2022/08/29 05:03:31;;;;;;;9.25;4.32;;;18.50;69.70;;;;;;5043362;28;20212;-86
2022/08/29 05:05:58;;;;;;;6.70;3.85;;;18.50;68.60;;;;;;5058523;28;20188;-87
2022/08/29 05:08:24;;;;;;;5.70;3.92;;;18.60;67.80;;;;;;5059155;28;20180;-86
2022/08/29 05:10:50;;;;;;;5.75;3.60;;;18.60;67.90;;;;;;5055828;28;20196;-87
2022/08/29 05:13:16;;;;;;;5.53;3.92;;;18.50;68.40;;;;;;5036399;28;20232;-85
2022/08/29 05:15:43;;;;;;;12.75;11.73;;;18.50;68.30;;;;;;5056763;28;20276;-86
2022/08/29 05:18:12;;;;;;;6.07;4.50;;;18.60;69.50;;;;;;5057215;28;20193;-86
2022/08/29 05:20:39;;;;;;;5.07;3.90;;;18.70;67.50;;;;;;5038548;28;20226;-85
2022/08/29 05:29:57;;;;;;;7.85;3.92;;;18.60;67.10;;;;;;4972367;28;20873;-86
2022/08/29 05:32:23;;;;;;;5.20;3.53;;;18.70;67.40;;;;;;4972938;28;20350;-86
2022/08/29 05:34:49;;;;;;;5.60;4.15;;;18.80;66.30;;;;;;5027025;28;20251;-86
2022/08/29 05:37:18;;;;;;;7.72;4.65;;;18.60;66.60;;;;;;5035049;28;20697;-86
2022/08/29 05:39:44;;;;;;;3.95;3.55;;;18.60;66.60;;;;;;5038349;28;20192;-86
2022/08/29 05:42:11;;;;;;;5.40;3.58;;;18.60;66.60;;;;;;5042615;28;20227;-86
2022/08/29 05:44:38;;;;;;;4.25;3.75;;;18.60;66.70;;;;;;5038124;28;20215;-85
2022/08/29 05:47:07;;;;;;;4.93;3.72;;;18.50;66.30;;;;;;5055414;28;20275;-85
2022/08/29 05:49:38;;;;;;;5.43;4.20;;;18.50;67.10;;;;;;5051284;28;20188;-85
2022/08/29 05:52:06;;;;;;;4.78;4.20;;;18.60;66.90;;;;;;5036078;28;20200;-86
2022/08/29 05:54:35;;;;;;;4.88;3.60;;;18.70;66.00;;;;;;5044115;28;20707;-85
2022/08/29 05:57:01;;;;;;;7.50;3.90;;;18.70;66.50;;;;;;5051363;28;20195;-86
2022/08/29 05:59:27;;;;;;;5.38;4.07;;;18.80;65.00;;;;;;5034464;28;20185;-87
2022/08/29 06:01:53;;;;;;;4.53;4.13;;;18.80;65.90;;;;;;5026138;28;20215;-86
2022/08/29 06:04:19;;;;;;;4.40;4.00;;;18.70;66.40;;;;;;5020819;28;20218;-87
2022/08/29 06:07:12;;;;;;;5.32;4.10;;;18.80;65.30;;;;;;5042475;28;20195;-87
2022/08/29 06:09:51;;;;;;;5.35;4.05;;;18.70;65.80;;;;;;5042843;28;20487;-87
2022/08/29 06:12:23;;;;;;;7.75;4.32;;;18.70;66.10;;;;;;5042394;28;20184;-86
2022/08/29 06:14:49;;;;;;;6.78;3.80;;;18.70;66.00;;;;;;5024904;28;20216;-87
2022/08/29 06:17:15;;;;;;;7.10;4.28;;;18.60;66.10;;;;;;5018980;28;20220;-86
2022/08/29 06:19:48;;;;;;;5.18;4.07;;;18.60;66.80;;;;;;5022500;28;20181;-86
2022/08/29 06:22:15;;;;;;;8.20;4.22;;;18.60;65.70;;;;;;5058005;28;20175;-87
2022/08/29 06:24:47;;;;;;;6.05;4.15;;;18.60;66.80;;;;;;5016636;28;20236;-87
2022/08/29 06:27:12;;;;;;;6.95;4.00;;;18.60;66.50;;;;;;5038966;28;20203;-87
2022/08/29 06:29:38;;;;;;;6.05;4.05;;;18.60;66.40;;;;;;5057614;28;20197;-87
2022/08/29 06:32:04;;;;;;;5.78;4.07;;;18.60;66.50;;;;;;5049107;28;20366;-87
2022/08/29 06:34:41;;;;;;;4.68;3.92;;;18.70;66.80;;;;;;4967725;28;20381;-87
2022/08/29 06:37:10;;;;;;;7.85;4.28;;;18.70;66.30;;;;;;5036661;28;20350;-87
2022/08/29 06:39:50;;;;;;;4.72;3.85;;;18.80;66.00;;;;;;5043132;28;20228;-87
2022/08/29 06:42:24;;;;;;;3.83;3.50;;;18.90;66.60;;;;;;5038641;28;20219;-87
2022/08/29 06:44:58;;;;;;;5.53;4.40;;;18.90;66.20;;;;;;5042413;28;20239;-88
2022/08/29 06:47:26;;;;;;;5.55;3.90;;;18.90;66.20;;;;;;5041434;28;20199;-86
2022/08/29 06:49:58;;;;;;;8.77;4.30;;;19.00;66.40;;;;;;5042765;28;20188;-87
2022/08/29 06:52:36;;;;;;;5.13;4.28;;;19.10;66.00;;;;;;5040862;28;20185;-87
2022/08/29 06:55:16;;;;;;;4.55;4.03;;;19.20;65.80;;;;;;5039725;28;20208;-87
2022/08/29 06:57:45;;;;;;;9.05;4.70;;;19.50;64.70;;;;;;5040054;28;20192;-87
2022/08/29 07:00:15;;;;;;;6.72;5.25;;;19.60;64.00;;;;;;5042024;28;20181;-87
2022/08/29 07:02:44;;;;;;;16.52;8.38;;;19.70;64.00;;;;;;5024570;28;20579;-86
2022/08/29 07:05:56;;;;;;;9.27;5.75;;;19.80;64.60;;;;;;5043375;28;20188;-87
2022/08/29 07:08:23;;;;;;;5.88;4.13;;;20.00;62.10;;;;;;5039951;28;20734;-87
2022/08/29 07:10:57;;;;;;;10.05;4.38;;;20.00;61.90;;;;;;5042624;28;20213;-87
2022/08/29 07:13:33;;;;;;;5.60;4.47;;;20.00;61.50;;;;;;5026182;28;20209;-86
2022/08/29 07:16:17;;;;;;;5.28;4.25;;;20.00;61.50;;;;;;5041285;28;20192;-86
2022/08/29 07:18:45;;;;;;;6.85;4.25;;;20.10;61.70;;;;;;5042140;28;20193;-87
2022/08/29 07:21:38;;;;;;;5.05;4.15;;;20.20;60.50;;;;;;5042078;28;20257;-86
2022/08/29 07:24:16;;;;;;;7.85;4.35;;;20.40;60.20;;;;;;5012969;28;20221;-86
2022/08/29 07:27:01;;;;;;;9.80;4.50;;;20.50;59.70;;;;;;5028526;28;20199;-86
2022/08/29 07:29:38;;;;;;;7.32;4.47;;;20.40;59.00;;;;;;5043426;28;20188;-85
2022/08/29 07:32:04;;;;;;;7.78;4.50;;;20.60;58.10;;;;;;5045160;28;20199;-87
2022/08/29 07:34:30;;;;;;;6.35;4.90;;;20.50;59.00;;;;;;5040772;28;20334;-86
2022/08/29 07:36:56;;;;;;;6.43;5.00;;;20.50;59.10;;;;;;5042058;28;20586;-85
2022/08/29 07:39:22;;;;;;;6.28;4.22;;;20.50;59.20;;;;;;5035129;28;20197;-87
2022/08/29 07:41:49;;;;;;;7.35;4.38;;;20.70;59.10;;;;;;5024792;28;20181;-86
2022/08/29 07:44:16;;;;;;;4.85;4.32;;;20.70;59.00;;;;;;5040312;28;20208;-86
2022/08/29 07:46:44;;;;;;;6.53;4.32;;;20.80;59.00;;;;;;5041801;28;20199;-86
2022/08/29 07:49:11;;;;;;;6.55;4.18;;;20.90;58.40;;;;;;5040716;28;20204;-85
2022/08/29 07:51:38;;;;;;;5.47;4.30;;;20.90;58.30;;;;;;5038438;28;20191;-86
2022/08/29 07:54:05;;;;;;;5.80;4.10;;;20.90;59.30;;;;;;5041070;28;20215;-86
2022/08/29 07:56:42;;;;;;;5.05;4.65;;;20.90;59.10;;;;;;5040735;28;20197;-85
2022/08/29 07:59:10;;;;;;;4.53;4.00;;;21.00;58.20;;;;;;5040063;28;20673;-86
2022/08/29 08:01:37;;;;;;;7.15;4.30;;;21.20;58.20;;;;;;5031090;28;20205;-86
2022/08/29 08:04:03;;;;;;;6.15;4.10;;;21.20;58.10;;;;;;5039574;28;20213;-86
2022/08/29 08:06:32;;;;;;;5.60;4.55;;;21.10;58.80;;;;;;5033277;28;20224;-86
2022/08/29 08:08:57;;;;;;;7.30;4.45;;;21.30;58.60;;;;;;5032468;28;20196;-86
2022/08/29 08:11:24;;;;;;;4.30;3.92;;;21.40;58.70;;;;;;5036524;28;20216;-86
2022/08/29 08:13:52;;;;;;;5.40;4.65;;;21.40;58.50;;;;;;5032279;28;20272;-86
2022/08/29 08:16:20;;;;;;;7.75;4.43;;;21.20;59.10;;;;;;5034991;28;20193;-86
2022/08/29 08:18:46;;;;;;;4.53;4.13;;;21.30;59.00;;;;;;5012185;28;20195;-86
2022/08/29 08:21:13;;;;;;;5.30;4.80;;;21.40;59.10;;;;;;5037423;28;20285;-86
2022/08/29 08:23:39;;;;;;;6.55;4.60;;;21.50;58.40;;;;;;5030035;28;20217;-87
2022/08/29 08:26:06;;;;;;;4.65;4.15;;;21.70;58.70;;;;;;5027960;28;20637;-87
2022/08/29 08:28:31;;;;;;;4.90;4.35;;;21.70;58.50;;;;;;5031565;28;20229;-86
2022/08/29 08:30:59;;;;;;;6.43;4.15;;;21.90;57.70;;;;;;5027290;28;20677;-87
2022/08/29 08:33:24;;;;;;;7.45;4.13;;;22.00;57.00;;;;;;5027809;28;20272;-88
2022/08/29 08:35:50;;;;;;;6.05;4.30;;;22.10;57.90;;;;;;5032007;28;20192;-85
2022/08/29 08:38:16;;;;;;;5.78;4.30;;;22.30;56.60;;;;;;5029876;28;20201;-88
2022/08/29 08:40:46;;;;;;;8.10;4.40;;;22.40;55.80;;;;;;5033321;28;20197;-87
2022/08/29 08:43:23;;;;;;;4.75;4.35;;;22.60;56.80;;;;;;5031809;28;20205;-86
2022/08/29 08:45:49;;;;;;;4.93;4.05;;;22.80;55.80;;;;;;5028159;28;20181;-86
2022/08/29 08:48:27;;;;;;;5.47;4.45;;;22.70;55.70;;;;;;5031803;28;20273;-86
2022/08/29 08:50:55;;;;;;;4.80;4.30;;;22.50;55.60;;;;;;5031070;28;20200;-86
2022/08/29 08:53:47;;;;;;;6.47;3.88;;;22.50;55.50;;;;;;5039384;28;20240;-85
2022/08/29 08:56:52;;;;;;;4.75;4.25;;;22.70;56.60;;;;;;5034612;28;20464;-86
2022/08/29 08:59:27;;;;;;;5.93;4.45;;;23.00;55.50;;;;;;5013274;28;20201;-85
2022/08/29 09:02:01;;;;;;;8.27;5.15;;;23.00;54.10;;;;;;5036117;28;20201;-85
2022/08/29 09:04:41;;;;;;;6.13;4.50;;;22.90;54.90;;;;;;5028878;28;20210;-87
2022/08/29 09:07:31;;;;;;;5.13;4.63;;;23.10;54.50;;;;;;5033802;28;20184;-87
2022/08/29 09:10:39;;;;;;;7.30;4.97;;;23.20;54.70;;;;;;5033884;28;20189;-85
2022/08/29 09:13:27;;;;;;;5.80;4.93;;;23.40;53.80;;;;;;5033913;28;20219;-85
2022/08/29 09:15:57;;;;;;;7.70;4.90;;;23.30;53.80;;;;;;5033498;28;20181;-85
2022/08/29 09:18:37;;;;;;;5.10;4.35;;;23.30;54.00;;;;;;5026337;28;20189;-86
2022/08/29 09:21:22;;;;;;;5.57;4.70;;;23.40;53.60;;;;;;5024408;28;20881;-86
2022/08/29 09:23:53;;;;;;;6.55;5.05;;;23.30;54.60;;;;;;5025775;28;20196;-86
2022/08/29 09:26:21;;;;;;;6.20;4.82;;;23.20;53.90;;;;;;5026136;28;20211;-85
2022/08/29 09:28:48;;;;;;;5.35;4.53;;;23.30;55.00;;;;;;5023391;28;20216;-86
2022/08/29 09:31:20;;;;;;;5.32;4.82;;;23.40;54.00;;;;;;5024136;28;20280;-86
2022/08/29 09:33:48;;;;;;;6.72;4.85;;;23.50;54.70;;;;;;5027606;28;20216;-85
2022/08/29 09:36:31;;;;;;;5.82;4.90;;;23.60;55.20;;;;;;5026360;28;20194;-85
2022/08/29 09:39:20;;;;;;;5.28;4.63;;;23.70;54.40;;;;;;5027183;28;20178;-85
2022/08/29 09:41:50;;;;;;;6.70;5.47;;;24.00;54.00;;;;;;5028750;28;20231;-88
2022/08/29 09:44:25;;;;;;;7.10;4.90;;;24.40;52.70;;;;;;5025447;28;20197;-86
2022/08/29 09:47:13;;;;;;;7.00;4.97;;;24.50;52.20;;;;;;5031050;28;20231;-86
2022/08/29 09:49:57;;;;;;;7.70;5.20;;;24.70;52.40;;;;;;5032053;28;20189;-86
2022/08/29 09:52:23;;;;;;;5.90;5.15;;;25.00;51.60;;;;;;5025233;28;20200;-87
2022/08/29 09:54:49;;;;;;;6.45;5.10;;;25.10;50.40;;;;;;5030200;28;20631;-85
2022/08/29 09:57:17;;;;;;;6.07;5.25;;;25.10;51.30;;;;;;5029541;28;20195;-86
2022/08/29 10:00:04;;;;;;;5.45;4.95;;;25.00;50.80;;;;;;5032344;28;20177;-85
2022/08/29 10:02:47;;;;;;;6.97;5.28;;;24.80;51.20;;;;;;5033917;28;20192;-85
2022/08/29 10:05:33;;;;;;;5.38;4.88;;;25.10;51.30;;;;;;5027544;28;20186;-86
2022/08/29 10:08:01;;;;;;;5.05;4.63;;;25.30;50.70;;;;;;5032027;28;20190;-86
2022/08/29 10:10:31;;;;;;;8.50;5.20;;;25.30;50.40;;;;;;5030703;28;20292;-87
2022/08/29 10:13:19;;;;;;;5.63;5.13;;;25.20;50.70;;;;;;5023155;28;20221;-87
2022/08/29 10:16:06;;;;;;;5.93;5.10;;;25.40;50.30;;;;;;5027389;28;20280;-86
2022/08/29 10:18:53;;;;;;;5.38;4.88;;;25.40;50.30;;;;;;5030488;28;20260;-84
2022/08/29 10:21:48;;;;;;;7.00;5.68;;;25.70;50.20;;;;;;5031763;28;20196;-86
2022/08/29 10:24:16;;;;;;;7.15;4.90;;;25.80;48.60;;;;;;5022915;28;21147;-86
2022/08/29 10:27:10;;;;;;;5.57;4.88;;;25.80;48.90;;;;;;5021357;28;20198;-86
2022/08/29 10:30:00;;;;;;;8.02;5.43;;;26.00;49.00;;;;;;5029324;28;20204;-86
2022/08/29 10:32:44;;;;;;;5.80;5.20;;;26.30;46.90;;;;;;5030331;28;20184;-87
2022/08/29 10:35:19;;;;;;;5.35;4.95;;;26.80;45.50;;;;;;5029646;28;20320;-87
2022/08/29 10:38:14;;;;;;;8.15;5.55;;;26.90;44.70;;;;;;5029600;28;20169;-86
2022/08/29 10:40:50;;;;;;;6.43;5.45;;;26.90;45.50;;;;;;5029732;28;20197;-87
2022/08/29 10:43:48;;;;;;;5.55;4.97;;;27.30;44.50;;;;;;5029500;28;20201;-87
2022/08/29 10:46:40;;;;;;;8.27;5.30;;;27.50;43.50;;;;;;5006131;28;20244;-87
2022/08/29 10:49:30;;;;;;;6.40;4.80;;;27.70;43.10;;;;;;5026076;28;20227;-86
2022/08/29 10:52:20;;;;;;;5.85;5.30;;;27.80;41.20;;;;;;5029608;28;20213;-86
2022/08/29 10:54:51;;;;;;;7.38;5.32;;;28.00;40.70;;;;;;5030110;28;20210;-86
2022/08/29 10:57:59;;;;;;;6.07;5.40;;;28.30;39.70;;;;;;5028371;28;20176;-86
2022/08/29 11:00:43;;;;;;;9.27;5.82;;;28.50;39.20;;;;;;5029612;28;20184;-86
2022/08/29 11:03:34;;;;;;;5.82;5.32;;;28.60;38.40;;;;;;5027051;28;20685;-86
2022/08/29 11:06:10;;;;;;;7.93;5.60;;;28.80;39.10;;;;;;5031776;28;20201;-87
2022/08/29 11:09:02;;;;;;;6.53;5.82;;;29.00;38.40;;;;;;5024636;28;20263;-85
2022/08/29 11:11:32;;;;;;;6.78;6.00;;;29.20;38.60;;;;;;5023600;28;20264;-86
2022/08/29 11:14:11;;;;;;;7.25;5.78;;;29.30;38.80;;;;;;5026470;28;20213;-85
2022/08/29 11:16:45;;;;;;;6.38;5.80;;;29.30;38.60;;;;;;5024813;28;20189;-86
2022/08/29 11:19:23;;;;;;;7.00;5.50;;;29.30;37.40;;;;;;5027800;28;20950;-86
2022/08/29 11:21:55;;;;;;;7.63;5.60;;;29.30;37.20;;;;;;5029719;28;20668;-87
2022/08/29 11:24:22;;;;;;;6.00;5.50;;;29.30;37.50;;;;;;5030776;28;20404;-86
2022/08/29 11:26:52;;;;;;;6.47;5.88;;;29.40;36.70;;;;;;5028120;28;20534;-86
2022/08/29 11:29:42;;;;;;;6.45;5.63;;;29.40;37.30;;;;;;5028150;28;20196;-86
2022/08/29 11:32:41;;;;;;;6.50;5.90;;;29.60;36.40;;;;;;5026226;28;20660;-86
2022/08/29 11:35:37;;;;;;;6.10;5.60;;;29.70;36.20;;;;;;5028418;28;20209;-86
2022/08/29 11:38:21;;;;;;;6.13;5.63;;;30.20;35.50;;;;;;5028660;28;20173;-86
2022/08/29 11:41:14;;;;;;;5.68;5.20;;;30.40;35.10;;;;;;5025723;28;20177;-86
2022/08/29 11:43:50;;;;;;;6.03;5.60;;;30.50;35.50;;;;;;5023166;28;20295;-86
2022/08/29 11:46:33;;;;;;;6.32;5.80;;;30.50;35.30;;;;;;5021688;28;20203;-86
2022/08/29 11:49:24;;;;;;;6.90;5.72;;;30.20;35.80;;;;;;5024265;28;20189;-86
2022/08/29 11:51:57;;;;;;;6.15;5.63;;;30.10;36.60;;;;;;5020060;28;20265;-86
2022/08/29 11:54:23;;;;;;;5.72;5.13;;;30.10;36.80;;;;;;5026963;28;20535;-88
2022/08/29 11:56:50;;;;;;;6.05;5.45;;;30.10;35.70;;;;;;5025179;28;20199;-86
2022/08/29 11:59:43;;;;;;;6.75;5.65;;;30.20;35.40;;;;;;5024664;28;20236;-86
2022/08/29 12:02:30;;;;;;;6.13;5.60;;;30.40;35.20;;;;;;5026013;28;20654;-85
2022/08/29 12:05:15;;;;;;;6.25;5.75;;;30.90;33.80;;;;;;5027875;28;20220;-86
2022/08/29 12:08:11;;;;;;;6.53;5.60;;;31.40;33.90;;;;;;5023782;28;20212;-86
2022/08/29 12:10:53;;;;;;;6.28;5.78;;;31.70;33.30;;;;;;5018637;28;20205;-86
2022/08/29 12:13:58;;;;;;;6.70;6.10;;;31.50;33.50;;;;;;5021700;28;20205;-87
2022/08/29 12:16:42;;;;;;;6.50;6.00;;;31.60;33.10;;;;;;4984327;28;20194;-87
2022/08/29 12:19:08;;;;;;;6.85;6.15;;;32.00;32.80;;;;;;4984371;28;20183;-86
2022/08/29 12:21:36;;;;;;;7.25;6.55;;;32.20;32.00;;;;;;5005326;28;20884;-87
2022/08/29 12:24:04;;;;;;;6.55;6.00;;;32.20;31.30;;;;;;5026359;28;20204;-86
2022/08/29 12:26:43;;;;;;;7.32;6.57;;;32.00;32.40;;;;;;5025224;28;20208;-85
2022/08/29 12:29:32;;;;;;;6.45;5.85;;;31.70;32.60;;;;;;5032252;28;20230;-86
2022/08/29 12:32:03;;;;;;;8.30;5.97;;;31.40;32.80;;;;;;5031770;28;20551;-85
2022/08/29 12:34:48;;;;;;;6.68;6.05;;;31.60;32.30;;;;;;5032177;28;20752;-85
2022/08/29 12:37:42;;;;;;;6.07;5.60;;;32.00;31.60;;;;;;5034826;28;20187;-85
2022/08/29 12:40:28;;;;;;;9.85;6.47;;;32.40;31.20;;;;;;5035014;28;20543;-85
2022/08/29 12:43:29;;;;;;;7.07;6.45;;;32.60;30.60;;;;;;5034936;28;20177;-86
2022/08/29 12:45:56;;;;;;;7.07;6.47;;;32.80;30.20;;;;;;5033469;28;20175;-86
2022/08/29 12:48:27;;;;;;;6.95;6.35;;;33.10;29.60;;;;;;5033764;28;20246;-85
2022/08/29 12:50:53;;;;;;;6.72;6.22;;;33.10;29.80;;;;;;5033425;28;20188;-85
2022/08/29 12:53:33;;;;;;;6.88;6.38;;;33.50;29.70;;;;;;5033797;28;20217;-86
2022/08/29 12:56:19;;;;;;;6.60;6.07;;;33.70;28.90;;;;;;5033725;28;20263;-82
2022/08/29 12:58:52;;;;;;;6.85;6.45;;;33.60;28.40;;;;;;5034928;28;20268;-84
2022/08/29 13:01:25;;;;;;;7.47;6.70;;;33.80;29.00;;;;;;5034176;28;20335;-85
2022/08/29 13:04:02;;;;;;;6.57;6.05;;;33.80;29.20;;;;;;5032730;28;20223;-84
2022/08/29 13:06:29;;;;;;;7.07;6.55;;;33.90;28.60;;;;;;5028199;28;20214;-85
2022/08/29 13:08:55;;;;;;;7.30;6.80;;;33.90;28.60;;;;;;5016192;28;20207;-84
2022/08/29 13:11:24;;;;;;;7.40;6.80;;;33.80;28.50;;;;;;5034806;28;20239;-84
2022/08/29 13:13:50;;;;;;;8.73;6.50;;;34.00;28.20;;;;;;5029501;28;20213;-84
2022/08/29 13:16:29;;;;;;;7.15;6.57;;;34.10;28.30;;;;;;5028863;28;20263;-84
2022/08/29 13:18:55;;;;;;;7.57;6.97;;;33.90;28.20;;;;;;5031498;28;20192;-85
2022/08/29 13:21:30;;;;;;;6.88;6.18;;;33.90;28.20;;;;;;5035967;28;20191;-84
2022/08/29 13:24:30;;;;;;;6.90;6.40;;;33.90;27.50;;;;;;5031041;28;20582;-85